Flight Information

DEPARTURE
HELENA, MT
Elevation:
3877
Runways:
5/23 - 4644x75 - ASPH-F
9/27 - 9000x150 - ASPH-G
10/28 - 1584x75 - TURF
17/35 - 2989x75 - ASPH-F
ATIS:
120.4
Ground:
121.9
Tower:
HELENA TOWER 118.3
DESTINATION
,
Elevation:
TPA:
1000 (est.)


6293.9 NM74° True-16° Var57° HDG

Flight Plan:
(click to file on line)

1. Type
2. Aircraft Identification
3. Aircraft Type / Special Equipment
4. True Airspeed
kts
5. Departure Airport
(ICAO code)
6. Arriving Airport
(ICAO code)
7. Cruising Altitude
ft
8. Alternate Airport
(ICAO code)
9. Route of Flight
10. Remarks


00:00:00 Departure ATIS: Destination ATIS:

Clearance Limit:
Route:
Altitude: Expect in minutes
Frequency:
Transponder: (7500 Hijack / 7600 Lost Comms / 7700 Emergency)


KHLN 282053Z 28006KT 10SM CLR M04/M12 A3036 RMK AO2 SLP352 T10391117 56029
Time: 2022-01-28T20:53:00Z
1643405980
Winds: 280 @ 6 kts
Visibility: 10.0 sm
Clouds (AGL): CLR
Temperature: -3.9 C
Dew Point: -11.7 C
Pressure: 30.360237 in Hgbr


Notes:

Data extracted from FAA Digital Chart Supplement. Effective: 0901Z Thursday, DEC 2, 2021 to 0901Z Thursday, JAN 27, 2022
Current ATIS data is provided courtisy of PilotEdge.